Time;durP1;ratioP1;P1;durP2;ratioP2;P2;SDS_P1;SDS_P2;PMS_P1;PMS_P2;Temp;Humidity;BMP_temperature;BMP_pressure;BME280_temperature;BME280_humidity;BME280_pressure;Samples;Min_cycle;Max_cycle;Signal;HPM_P1;HPM_P2
2022/12/02 00:01:00;;;;;;;14.43;9.40;;;;;;;;;;5033970;28;20049;-67
2022/12/02 00:03:26;;;;;;;15.52;9.20;;;;;;;;;;5034030;28;20045;-67
2022/12/02 00:05:56;;;;;;;13.38;9.55;;;;;;;;;;5033638;28;20072;-68
2022/12/02 00:08:29;;;;;;;13.82;9.80;;;;;;;;;;5033797;28;20080;-67
2022/12/02 00:10:56;;;;;;;13.65;9.02;;;;;;;;;;5034312;28;20065;-67
2022/12/02 00:13:29;;;;;;;14.30;9.25;;;;;;;;;;5034804;28;20041;-67
2022/12/02 00:15:59;;;;;;;14.57;9.43;;;;;;;;;;5037904;28;20048;-67
2022/12/02 00:18:25;;;;;;;15.60;9.63;;;;;;;;;;5037798;28;20041;-67
2022/12/02 00:20:52;;;;;;;20.00;11.57;;;;;;;;;;5037723;28;20047;-67
2022/12/02 00:23:18;;;;;;;29.92;15.70;;;;;;;;;;5037383;28;20046;-67
2022/12/02 00:25:54;;;;;;;27.58;17.40;;;;;;;;;;5037330;28;20041;-68
2022/12/02 00:28:20;;;;;;;114.95;88.53;;;;;;;;;;5037291;28;20041;-68
2022/12/02 00:30:46;;;;;;;36.10;24.08;;;;;;;;;;5037462;28;20572;-67
2022/12/02 00:33:14;;;;;;;37.88;21.35;;;;;;;;;;5037585;28;20075;-67
2022/12/02 00:35:40;;;;;;;33.95;20.00;;;;;;;;;;5037389;28;20141;-67
2022/12/02 00:38:06;;;;;;;27.80;17.73;;;;;;;;;;5036980;28;20045;-68
2022/12/02 00:40:34;;;;;;;25.10;16.70;;;;;;;;;;5037589;28;20114;-67
2022/12/02 00:48:29;;;;;;;30.15;15.23;;;;;;;;;;5036732;28;20044;-68
2022/12/02 00:50:55;;;;;;;36.88;18.90;;;;;;;;;;5036761;28;20045;-68
2022/12/02 00:53:21;;;;;;;44.10;21.05;;;;;;;;;;5037099;28;20049;-68
2022/12/02 00:55:47;;;;;;;36.83;18.10;;;;;;;;;;5037060;28;20038;-67
2022/12/02 00:58:14;;;;;;;34.63;18.50;;;;;;;;;;5037578;28;20476;-68
2022/12/02 01:00:40;;;;;;;29.00;14.48;;;;;;;;;;5037004;28;20036;-68
2022/12/02 01:03:06;;;;;;;25.95;13.43;;;;;;;;;;5036373;28;20116;-68
2022/12/02 01:05:32;;;;;;;27.88;14.68;;;;;;;;;;5019099;28;20052;-67
2022/12/02 01:07:58;;;;;;;21.48;12.38;;;;;;;;;;5036731;28;20045;-68
2022/12/02 01:10:24;;;;;;;23.83;13.40;;;;;;;;;;5036466;28;20045;-68
2022/12/02 01:12:50;;;;;;;24.58;13.52;;;;;;;;;;5035996;28;20053;-68
2022/12/02 01:15:17;;;;;;;23.90;13.35;;;;;;;;;;5036444;28;20068;-68
2022/12/02 01:17:43;;;;;;;20.92;12.50;;;;;;;;;;5036138;28;20037;-68
2022/12/02 01:20:09;;;;;;;21.25;11.55;;;;;;;;;;5036073;28;20041;-68
2022/12/02 01:22:35;;;;;;;29.95;18.08;;;;;;;;;;5036189;28;20037;-68
2022/12/02 01:25:01;;;;;;;25.35;14.02;;;;;;;;;;5035448;28;20041;-67
2022/12/02 01:27:27;;;;;;;18.50;10.40;;;;;;;;;;5036022;28;20037;-68
2022/12/02 01:29:53;;;;;;;18.75;11.63;;;;;;;;;;5036629;28;20140;-68
2022/12/02 01:32:20;;;;;;;21.77;12.32;;;;;;;;;;5036268;28;20045;-68
2022/12/02 01:34:46;;;;;;;20.02;10.98;;;;;;;;;;5036038;28;20518;-68
2022/12/02 01:37:12;;;;;;;26.40;15.23;;;;;;;;;;5035848;28;20060;-67
2022/12/02 01:39:38;;;;;;;22.23;12.75;;;;;;;;;;5035989;28;20096;-68
2022/12/02 01:42:04;;;;;;;25.58;13.57;;;;;;;;;;5036142;28;20046;-68
2022/12/02 01:44:31;;;;;;;24.20;14.07;;;;;;;;;;5035917;28;20046;-68
2022/12/02 01:46:57;;;;;;;26.52;15.25;;;;;;;;;;5035789;28;20059;-67
2022/12/02 01:49:24;;;;;;;22.70;13.02;;;;;;;;;;5035689;28;20045;-68
2022/12/02 01:51:50;;;;;;;24.80;13.48;;;;;;;;;;5035648;28;20084;-68
2022/12/02 01:54:17;;;;;;;21.50;12.73;;;;;;;;;;5035975;28;20045;-68
2022/12/02 01:56:43;;;;;;;24.73;13.90;;;;;;;;;;5035388;28;20489;-68
2022/12/02 01:59:10;;;;;;;26.05;14.75;;;;;;;;;;5035308;28;20096;-68
2022/12/02 02:01:37;;;;;;;23.75;13.52;;;;;;;;;;5035737;28;20049;-68
2022/12/02 02:04:04;;;;;;;22.52;13.32;;;;;;;;;;5035535;28;20037;-67
2022/12/02 02:06:34;;;;;;;24.10;14.00;;;;;;;;;;5035078;28;20049;-68
2022/12/02 02:09:00;;;;;;;25.20;14.52;;;;;;;;;;5035496;28;20052;-67
2022/12/02 02:11:26;;;;;;;26.63;16.85;;;;;;;;;;5035452;28;20081;-68
2022/12/02 02:13:53;;;;;;;26.33;17.00;;;;;;;;;;5036089;28;20041;-67
2022/12/02 02:16:20;;;;;;;27.48;14.88;;;;;;;;;;5034975;28;20041;-68
2022/12/02 02:18:46;;;;;;;23.33;13.30;;;;;;;;;;5035540;28;20084;-68
2022/12/02 02:21:16;;;;;;;23.60;13.70;;;;;;;;;;5035606;28;20080;-68
2022/12/02 02:23:43;;;;;;;23.17;12.23;;;;;;;;;;5035057;28;20068;-67
2022/12/02 02:26:09;;;;;;;20.33;11.20;;;;;;;;;;5035490;28;20042;-67
2022/12/02 02:28:35;;;;;;;23.80;14.25;;;;;;;;;;5035056;28;20059;-68
2022/12/02 02:31:01;;;;;;;22.60;11.35;;;;;;;;;;5034977;28;20141;-67
2022/12/02 02:33:29;;;;;;;22.75;12.25;;;;;;;;;;5035380;28;20045;-67
2022/12/02 02:35:55;;;;;;;21.77;11.57;;;;;;;;;;5035089;28;20045;-67
2022/12/02 02:38:22;;;;;;;21.23;11.93;;;;;;;;;;5034769;28;20132;-67
2022/12/02 02:40:49;;;;;;;18.85;10.75;;;;;;;;;;5034853;28;20045;-67
2022/12/02 02:43:16;;;;;;;18.13;11.07;;;;;;;;;;5034871;28;20041;-67
2022/12/02 02:45:43;;;;;;;23.38;12.32;;;;;;;;;;5034722;28;20045;-67
2022/12/02 02:48:10;;;;;;;19.63;10.98;;;;;;;;;;5035002;28;20048;-67
2022/12/02 02:50:37;;;;;;;18.95;11.48;;;;;;;;;;5034872;28;20052;-67
2022/12/02 02:53:04;;;;;;;22.50;11.93;;;;;;;;;;5034870;28;20042;-68
2022/12/02 02:55:31;;;;;;;19.63;11.30;;;;;;;;;;5034897;28;20045;-68
2022/12/02 02:58:12;;;;;;;19.63;10.73;;;;;;;;;;5034558;28;20034;-67
2022/12/02 03:00:40;;;;;;;16.30;10.15;;;;;;;;;;5034794;28;20128;-68
2022/12/02 03:03:06;;;;;;;23.15;10.60;;;;;;;;;;5035038;28;20531;-67
2022/12/02 03:05:32;;;;;;;17.58;10.15;;;;;;;;;;5034251;28;20076;-67
2022/12/02 03:07:58;;;;;;;17.67;10.05;;;;;;;;;;5034522;28;20135;-67
2022/12/02 03:10:25;;;;;;;20.30;10.98;;;;;;;;;;5034665;28;20053;-67
2022/12/02 03:12:52;;;;;;;20.10;9.93;;;;;;;;;;5035077;28;20049;-67
2022/12/02 03:15:18;;;;;;;20.25;11.23;;;;;;;;;;5034396;28;20064;-67
2022/12/02 03:17:45;;;;;;;17.75;10.35;;;;;;;;;;5034665;28;20483;-67
2022/12/02 03:20:11;;;;;;;17.23;10.95;;;;;;;;;;5034423;28;20049;-67
2022/12/02 03:22:37;;;;;;;18.95;10.05;;;;;;;;;;5034240;28;20385;-68
2022/12/02 03:25:04;;;;;;;18.58;10.20;;;;;;;;;;5034320;28;20526;-68
2022/12/02 03:27:30;;;;;;;17.17;9.45;;;;;;;;;;5034393;28;20122;-67
2022/12/02 03:29:57;;;;;;;17.70;10.00;;;;;;;;;;5034778;28;20060;-67
2022/12/02 03:32:23;;;;;;;19.08;10.50;;;;;;;;;;5034619;28;20480;-67
2022/12/02 03:34:49;;;;;;;19.42;10.45;;;;;;;;;;5034578;28;20069;-68
2022/12/02 03:37:15;;;;;;;18.17;10.05;;;;;;;;;;5034396;28;20049;-67
2022/12/02 03:39:41;;;;;;;19.85;10.07;;;;;;;;;;5034487;28;20049;-67
2022/12/02 03:42:08;;;;;;;19.40;10.50;;;;;;;;;;5034699;28;20046;-67
2022/12/02 03:44:34;;;;;;;20.25;11.43;;;;;;;;;;5034448;28;20100;-67
2022/12/02 03:47:01;;;;;;;18.70;10.13;;;;;;;;;;5034430;28;20041;-67
2022/12/02 03:49:27;;;;;;;19.67;10.63;;;;;;;;;;5036263;28;20508;-67
2022/12/02 03:51:53;;;;;;;19.83;9.75;;;;;;;;;;5038213;28;20053;-67
2022/12/02 03:54:19;;;;;;;20.15;10.30;;;;;;;;;;5038540;28;20077;-67
2022/12/02 03:56:46;;;;;;;20.85;10.40;;;;;;;;;;5038172;28;20045;-67
2022/12/02 03:59:18;;;;;;;22.02;11.18;;;;;;;;;;5038423;28;20048;-67
2022/12/02 04:01:44;;;;;;;19.67;11.13;;;;;;;;;;5038128;28;20054;-67
2022/12/02 04:04:10;;;;;;;19.67;10.32;;;;;;;;;;5037747;28;20037;-67
2022/12/02 04:06:36;;;;;;;20.90;11.48;;;;;;;;;;5037637;28;20053;-67
2022/12/02 04:09:03;;;;;;;19.73;12.13;;;;;;;;;;5037865;28;20116;-67
2022/12/02 04:11:29;;;;;;;22.33;12.02;;;;;;;;;;5037927;28;20059;-67
2022/12/02 04:13:55;;;;;;;20.30;11.27;;;;;;;;;;5037991;28;20046;-67
2022/12/02 04:16:21;;;;;;;23.65;13.20;;;;;;;;;;5037253;28;20049;-67
2022/12/02 04:18:47;;;;;;;23.27;11.77;;;;;;;;;;5037430;28;20512;-67
2022/12/02 04:21:13;;;;;;;26.38;12.07;;;;;;;;;;5037409;28;20128;-67
2022/12/02 04:23:39;;;;;;;22.15;11.23;;;;;;;;;;5037262;28;20037;-67
2022/12/02 04:26:06;;;;;;;19.65;10.57;;;;;;;;;;5037086;28;20072;-67
2022/12/02 04:28:32;;;;;;;17.92;10.43;;;;;;;;;;5037015;28;20049;-67
2022/12/02 04:30:58;;;;;;;24.17;11.65;;;;;;;;;;5037200;28;20053;-67
2022/12/02 04:33:24;;;;;;;17.73;10.90;;;;;;;;;;5037822;28;20049;-67
2022/12/02 04:35:50;;;;;;;20.27;10.77;;;;;;;;;;5037158;28;20524;-67
2022/12/02 04:38:16;;;;;;;25.02;12.27;;;;;;;;;;5036968;28;20045;-67
2022/12/02 04:40:42;;;;;;;22.58;12.05;;;;;;;;;;5037346;28;20506;-67
2022/12/02 04:43:08;;;;;;;26.13;13.07;;;;;;;;;;5037681;28;20495;-67
2022/12/02 04:45:34;;;;;;;23.65;12.68;;;;;;;;;;5036960;28;20041;-67
2022/12/02 04:48:01;;;;;;;34.25;15.98;;;;;;;;;;5036933;28;20034;-67
2022/12/02 04:50:27;;;;;;;39.17;18.13;;;;;;;;;;5036789;28;20049;-67
2022/12/02 04:52:53;;;;;;;39.63;17.17;;;;;;;;;;5036664;28;20528;-67
2022/12/02 04:55:19;;;;;;;76.38;19.58;;;;;;;;;;5036553;28;20045;-67
2022/12/02 04:57:45;;;;;;;49.60;18.08;;;;;;;;;;5035780;28;20188;-67
2022/12/02 05:00:11;;;;;;;68.20;17.40;;;;;;;;;;5036330;28;20507;-68
2022/12/02 05:02:38;;;;;;;41.90;17.50;;;;;;;;;;5036752;28;20113;-68
2022/12/02 05:05:04;;;;;;;30.52;15.30;;;;;;;;;;5036354;28;20045;-68
2022/12/02 05:07:30;;;;;;;31.67;15.77;;;;;;;;;;5036622;28;20057;-67
2022/12/02 05:09:56;;;;;;;28.65;15.82;;;;;;;;;;5036787;28;20124;-68
2022/12/02 05:12:23;;;;;;;24.80;13.32;;;;;;;;;;5036783;28;20120;-67
2022/12/02 05:14:49;;;;;;;27.58;14.05;;;;;;;;;;5036392;28;20033;-67
2022/12/02 05:17:16;;;;;;;41.40;15.57;;;;;;;;;;5036581;28;20046;-67
2022/12/02 05:19:42;;;;;;;28.65;14.57;;;;;;;;;;5036959;28;20045;-68
2022/12/02 05:22:08;;;;;;;33.67;15.10;;;;;;;;;;5036526;28;20056;-67
2022/12/02 05:24:35;;;;;;;55.10;16.17;;;;;;;;;;5036818;28;20044;-68
2022/12/02 05:27:01;;;;;;;36.38;17.27;;;;;;;;;;5036429;28;20122;-67
2022/12/02 05:29:27;;;;;;;31.02;14.95;;;;;;;;;;5036482;28;20072;-67
2022/12/02 05:31:53;;;;;;;34.03;15.73;;;;;;;;;;5036381;28;20500;-68
2022/12/02 05:34:19;;;;;;;30.02;14.45;;;;;;;;;;5035605;28;20037;-68
2022/12/02 05:36:45;;;;;;;28.05;15.13;;;;;;;;;;5035600;28;20072;-68
2022/12/02 05:39:12;;;;;;;55.05;18.10;;;;;;;;;;5036287;28;20041;-68
2022/12/02 05:41:38;;;;;;;75.78;18.70;;;;;;;;;;5036207;28;20081;-68
2022/12/02 05:44:18;;;;;;;36.45;16.08;;;;;;;;;;5035444;28;20033;-68
2022/12/02 05:46:44;;;;;;;32.38;17.23;;;;;;;;;;5036025;28;20103;-68
2022/12/02 05:49:21;;;;;;;32.78;16.55;;;;;;;;;;5035915;28;20165;-68
2022/12/02 05:52:10;;;;;;;32.05;16.75;;;;;;;;;;5035801;28;20136;-68
2022/12/02 05:54:38;;;;;;;28.20;13.50;;;;;;;;;;5022817;28;20436;-68
2022/12/02 05:57:06;;;;;;;27.77;14.60;;;;;;;;;;5035620;28;20037;-68
2022/12/02 05:59:32;;;;;;;28.10;14.52;;;;;;;;;;5035335;28;20044;-68
2022/12/02 06:01:58;;;;;;;26.95;13.90;;;;;;;;;;5036118;28;20041;-68
2022/12/02 06:04:26;;;;;;;29.15;14.07;;;;;;;;;;5036107;28;20080;-68
2022/12/02 06:06:53;;;;;;;24.35;13.65;;;;;;;;;;5035628;28;20085;-68
2022/12/02 06:09:28;;;;;;;30.52;13.65;;;;;;;;;;5035571;28;20037;-68
2022/12/02 06:11:54;;;;;;;21.77;11.77;;;;;;;;;;5035054;28;20063;-68
2022/12/02 06:14:22;;;;;;;21.10;11.13;;;;;;;;;;5035592;28;20544;-68
2022/12/02 06:16:59;;;;;;;19.35;10.88;;;;;;;;;;5035584;28;20052;-68
2022/12/02 06:19:43;;;;;;;20.95;12.13;;;;;;;;;;5036159;28;20099;-68
2022/12/02 06:22:12;;;;;;;22.30;12.82;;;;;;;;;;5035177;28;20037;-68
2022/12/02 06:24:39;;;;;;;22.95;12.40;;;;;;;;;;5035442;28;20038;-68
2022/12/02 06:27:05;;;;;;;23.67;12.63;;;;;;;;;;5035513;28;20080;-68
2022/12/02 06:29:31;;;;;;;25.88;12.73;;;;;;;;;;5039770;28;20380;-67
2022/12/02 06:31:59;;;;;;;22.55;12.30;;;;;;;;;;5033206;28;20183;-68
2022/12/02 06:34:37;;;;;;;25.63;12.82;;;;;;;;;;5033531;28;20454;-68
2022/12/02 06:37:15;;;;;;;29.85;14.35;;;;;;;;;;5034198;28;20041;-68
2022/12/02 06:39:42;;;;;;;31.55;14.65;;;;;;;;;;5035372;28;20038;-67
2022/12/02 06:42:15;;;;;;;29.73;14.98;;;;;;;;;;5036654;28;20045;-67
2022/12/02 06:47:32;;;;;;;22.48;12.45;;;;;;;;;;5036876;28;20052;-68
2022/12/02 06:50:01;;;;;;;22.92;13.35;;;;;;;;;;5034535;28;20041;-68
2022/12/02 06:52:27;;;;;;;24.30;12.93;;;;;;;;;;5027364;28;20061;-68
2022/12/02 06:54:54;;;;;;;28.27;14.70;;;;;;;;;;5044714;28;20048;-68
2022/12/02 06:57:20;;;;;;;25.38;12.70;;;;;;;;;;5044585;28;20033;-68
2022/12/02 06:59:48;;;;;;;22.27;12.50;;;;;;;;;;5030817;28;20036;-68
2022/12/02 07:02:28;;;;;;;21.33;12.02;;;;;;;;;;5040366;28;20041;-67
2022/12/02 07:04:54;;;;;;;34.72;15.93;;;;;;;;;;5028446;28;20044;-68
2022/12/02 07:07:22;;;;;;;28.73;14.70;;;;;;;;;;5023217;28;20049;-67
2022/12/02 07:09:54;;;;;;;36.75;17.10;;;;;;;;;;5034751;28;20558;-68
2022/12/02 07:12:25;;;;;;;35.60;17.48;;;;;;;;;;5030125;28;20056;-68
2022/12/02 07:40:12;;;;;;;25.48;13.73;;;;;;;;;;5025461;23;20054;-69
2022/12/02 07:42:47;;;;;;;27.55;14.07;;;;;;;;;;4991181;28;20045;-69
2022/12/02 07:45:48;;;;;;;31.40;15.68;;;;;;;;;;4995124;28;20584;-70
2022/12/02 07:55:02;;;;;;;43.80;20.23;;;;;;;;;;4882222;29;20504;-69
2022/12/02 07:57:28;;;;;;;40.45;19.25;;;;;;;;;;4982282;28;20043;-69
2022/12/02 07:59:57;;;;;;;43.30;21.40;;;;;;;;;;4993246;28;20069;-68
2022/12/02 08:02:44;;;;;;;40.22;20.65;;;;;;;;;;4984821;28;20179;-68
2022/12/02 08:05:15;;;;;;;56.83;25.92;;;;;;;;;;4987381;28;20517;-69
2022/12/02 08:07:42;;;;;;;59.35;26.75;;;;;;;;;;4976971;28;20062;-68
2022/12/02 08:10:08;;;;;;;37.58;20.40;;;;;;;;;;4984290;28;20057;-69
2022/12/02 08:12:42;;;;;;;32.35;17.08;;;;;;;;;;4991455;28;20047;-68
2022/12/02 08:15:52;;;;;;;;;;;;;;;;;;;;;
2022/12/02 08:43:34;;;;;;;12.68;8.00;;;;;;;;;;5684909;24;20027;-70
2022/12/02 08:52:42;;;;;;;13.65;8.20;;;;;;;;;;4808754;29;20085;-69
2022/12/02 08:58:19;;;;;;;12.63;7.95;;;;;;;;;;4735262;30;20039;-69
2022/12/02 09:01:27;;;;;;;13.70;9.00;;;;;;;;;;4826732;29;20054;-69
2022/12/02 09:10:44;;;;;;;19.83;11.40;;;;;;;;;;4799131;29;20474;-71
2022/12/02 09:26:06;;;;;;;14.68;8.43;;;;;;;;;;4744356;30;20039;-70
2022/12/02 09:28:46;;;;;;;13.35;8.70;;;;;;;;;;4754643;30;20102;-70
2022/12/02 09:31:13;;;;;;;12.13;7.93;;;;;;;;;;4752388;30;20052;-70
2022/12/02 09:33:47;;;;;;;12.48;7.75;;;;;;;;;;4751844;30;20103;-70
2022/12/02 09:36:42;;;;;;;;;;;;;;;;;;;;;
2022/12/02 09:52:08;;;;;;;13.40;7.78;;;;;;;;;;4751349;30;20487;-69
2022/12/02 09:57:56;;;;;;;14.10;8.73;;;;;;;;;;4739116;30;20542;-71
2022/12/02 10:04:02;;;;;;;14.85;9.40;;;;;;;;;;4801099;29;20477;-70
2022/12/02 10:10:19;;;;;;;;;;;;;;;;;;;;;
2022/12/02 10:16:05;;;;;;;;;;;;;;;;;;;;;
2022/12/02 10:18:58;;;;;;;13.43;8.60;;;;;;;;;;4782829;29;20039;-70
2022/12/02 10:25:01;;;;;;;;;;;;;;;;;;;;;
2022/12/02 10:27:40;;;;;;;13.40;8.68;;;;;;;;;;4794736;29;20095;-70
2022/12/02 10:30:17;;;;;;;12.32;8.68;;;;;;;;;;4808128;29;20061;-70
2022/12/02 10:32:54;;;;;;;12.40;8.55;;;;;;;;;;4801961;29;20074;-71
2022/12/02 10:35:20;;;;;;;13.13;9.15;;;;;;;;;;4791358;29;20050;-71
2022/12/02 10:37:46;;;;;;;10.75;7.80;;;;;;;;;;4804329;29;20049;-71
2022/12/02 10:40:20;;;;;;;13.65;9.15;;;;;;;;;;4825740;29;20428;-71
2022/12/02 10:42:46;;;;;;;13.20;8.63;;;;;;;;;;4807007;29;20047;-71
2022/12/02 10:45:17;;;;;;;14.20;8.57;;;;;;;;;;4797917;29;20043;-70
2022/12/02 10:47:53;;;;;;;12.10;7.40;;;;;;;;;;4789587;30;20054;-69
2022/12/02 10:50:26;;;;;;;12.07;8.18;;;;;;;;;;4774516;29;20055;-70
2022/12/02 10:52:57;;;;;;;10.60;7.63;;;;;;;;;;4810261;29;20537;-69
2022/12/02 10:55:29;;;;;;;8.90;6.60;;;;;;;;;;4802184;29;20046;-69
2022/12/02 10:57:55;;;;;;;11.02;7.90;;;;;;;;;;4782910;29;20050;-70
2022/12/02 11:00:22;;;;;;;10.85;7.72;;;;;;;;;;4788115;29;20119;-70
2022/12/02 11:02:53;;;;;;;13.80;9.88;;;;;;;;;;4798139;29;20062;-69
2022/12/02 11:05:19;;;;;;;16.02;10.40;;;;;;;;;;4793735;29;20044;-70
2022/12/02 11:07:53;;;;;;;11.95;8.82;;;;;;;;;;4788326;30;20043;-69
2022/12/02 11:10:23;;;;;;;13.82;9.52;;;;;;;;;;4803564;29;20092;-69
2022/12/02 11:12:58;;;;;;;13.50;9.15;;;;;;;;;;4796135;29;20515;-70
2022/12/02 11:15:35;;;;;;;14.50;8.82;;;;;;;;;;4792862;29;20061;-70
2022/12/02 11:18:02;;;;;;;11.85;8.63;;;;;;;;;;4806382;29;20047;-70
2022/12/02 11:20:31;;;;;;;12.57;8.02;;;;;;;;;;4803672;29;20076;-70
2022/12/02 11:23:00;;;;;;;12.50;8.20;;;;;;;;;;4799374;29;20051;-71
2022/12/02 11:25:47;;;;;;;11.02;7.85;;;;;;;;;;4795558;29;20047;-71
2022/12/02 11:28:29;;;;;;;11.80;8.25;;;;;;;;;;4802207;29;20042;-71
2022/12/02 11:31:13;;;;;;;17.10;11.35;;;;;;;;;;4792704;29;20078;-71
2022/12/02 11:33:39;;;;;;;11.68;8.60;;;;;;;;;;4791057;29;20511;-70
2022/12/02 11:36:05;;;;;;;11.40;7.88;;;;;;;;;;4798991;29;20047;-71
2022/12/02 11:38:43;;;;;;;8.90;6.47;;;;;;;;;;4824368;29;20038;-70
2022/12/02 11:41:09;;;;;;;11.82;8.38;;;;;;;;;;4801149;29;20083;-71
2022/12/02 11:43:44;;;;;;;10.45;7.82;;;;;;;;;;4805955;29;20118;-71
2022/12/02 11:46:11;;;;;;;11.60;8.60;;;;;;;;;;4796020;29;20066;-70
2022/12/02 11:48:44;;;;;;;10.35;8.30;;;;;;;;;;4801256;29;20058;-70
2022/12/02 11:51:34;;;;;;;10.18;7.63;;;;;;;;;;4804030;29;20047;-70
2022/12/02 11:54:03;;;;;;;11.30;7.78;;;;;;;;;;4771734;30;20054;-70
2022/12/02 11:56:48;;;;;;;11.60;7.70;;;;;;;;;;4796494;29;20090;-70
2022/12/02 11:59:41;;;;;;;11.75;8.52;;;;;;;;;;4773099;30;20580;-70
2022/12/02 12:02:18;;;;;;;10.48;7.60;;;;;;;;;;4793394;29;20091;-70
2022/12/02 12:04:45;;;;;;;15.50;11.23;;;;;;;;;;4803201;29;20046;-70
2022/12/02 12:07:12;;;;;;;11.80;8.25;;;;;;;;;;4798793;29;20047;-70
2022/12/02 12:09:38;;;;;;;11.77;7.80;;;;;;;;;;4807379;29;20130;-69
2022/12/02 12:12:18;;;;;;;11.00;7.75;;;;;;;;;;4793716;29;20137;-72
2022/12/02 12:14:56;;;;;;;12.63;8.50;;;;;;;;;;4808947;29;20050;-70
2022/12/02 12:17:49;;;;;;;11.60;8.60;;;;;;;;;;4810568;29;20118;-70
2022/12/02 12:20:15;;;;;;;16.42;10.10;;;;;;;;;;4807214;29;20483;-70
2022/12/02 12:22:41;;;;;;;14.30;9.57;;;;;;;;;;4809561;29;20038;-70
2022/12/02 12:25:26;;;;;;;22.45;13.10;;;;;;;;;;4810360;29;20051;-70
2022/12/02 12:27:52;;;;;;;16.27;10.70;;;;;;;;;;4810342;29;20086;-70
2022/12/02 12:30:18;;;;;;;12.40;9.18;;;;;;;;;;4809948;29;20486;-70
2022/12/02 12:32:44;;;;;;;12.15;7.45;;;;;;;;;;4793746;29;20103;-70
2022/12/02 12:35:10;;;;;;;10.10;6.93;;;;;;;;;;4810203;29;20079;-70
2022/12/02 12:37:36;;;;;;;10.13;7.63;;;;;;;;;;4810054;29;20074;-70
2022/12/02 12:40:03;;;;;;;9.63;7.15;;;;;;;;;;4809798;29;20049;-70
2022/12/02 12:42:29;;;;;;;10.95;7.32;;;;;;;;;;4810199;29;20051;-70
2022/12/02 12:44:55;;;;;;;11.20;7.78;;;;;;;;;;4810068;29;20096;-70
2022/12/02 12:47:21;;;;;;;13.25;8.15;;;;;;;;;;4809400;29;20533;-70
2022/12/02 12:49:47;;;;;;;10.15;7.95;;;;;;;;;;4809697;29;20053;-70
2022/12/02 12:52:13;;;;;;;13.27;8.40;;;;;;;;;;4809021;29;20125;-70
2022/12/02 12:54:40;;;;;;;12.00;8.10;;;;;;;;;;4809310;29;20050;-70
2022/12/02 12:57:06;;;;;;;10.68;7.68;;;;;;;;;;4809706;29;20070;-70
2022/12/02 12:59:32;;;;;;;10.52;7.93;;;;;;;;;;4809772;29;20034;-70
2022/12/02 13:01:58;;;;;;;10.43;8.38;;;;;;;;;;4809739;29;20141;-70
2022/12/02 13:04:24;;;;;;;10.38;7.78;;;;;;;;;;4809165;29;20103;-70
2022/12/02 13:06:50;;;;;;;10.88;7.90;;;;;;;;;;4809440;29;20045;-70
2022/12/02 13:09:17;;;;;;;9.23;7.30;;;;;;;;;;4809010;29;20035;-70
2022/12/02 13:11:44;;;;;;;11.43;7.95;;;;;;;;;;4809232;29;20511;-70
2022/12/02 13:14:10;;;;;;;11.02;8.15;;;;;;;;;;4808998;29;20095;-70
2022/12/02 13:16:36;;;;;;;14.10;8.43;;;;;;;;;;4809218;29;20054;-70
2022/12/02 13:19:02;;;;;;;12.43;8.75;;;;;;;;;;4809438;29;20517;-70
2022/12/02 13:21:28;;;;;;;10.80;7.47;;;;;;;;;;4809044;29;20054;-70
2022/12/02 13:23:54;;;;;;;11.90;8.57;;;;;;;;;;4808823;29;20046;-70
2022/12/02 13:26:21;;;;;;;11.77;8.45;;;;;;;;;;4809391;29;20050;-70
2022/12/02 13:28:51;;;;;;;11.65;8.75;;;;;;;;;;4809291;29;20043;-70
2022/12/02 13:31:17;;;;;;;13.65;8.30;;;;;;;;;;4808768;29;20388;-70
2022/12/02 13:33:43;;;;;;;11.18;8.20;;;;;;;;;;4808933;29;20134;-70
2022/12/02 13:36:09;;;;;;;12.85;9.00;;;;;;;;;;4808569;29;20433;-70
2022/12/02 13:38:35;;;;;;;13.10;8.75;;;;;;;;;;4808674;29;20043;-70
2022/12/02 13:41:02;;;;;;;10.65;8.25;;;;;;;;;;4808477;29;20050;-70
2022/12/02 13:43:28;;;;;;;12.27;8.50;;;;;;;;;;4809310;29;20062;-70
2022/12/02 13:45:54;;;;;;;16.88;10.95;;;;;;;;;;4808856;29;20047;-70
2022/12/02 13:48:20;;;;;;;17.80;10.35;;;;;;;;;;4808979;29;20049;-70
2022/12/02 13:50:46;;;;;;;13.30;8.45;;;;;;;;;;4808545;29;20089;-70
2022/12/02 13:53:12;;;;;;;15.55;8.68;;;;;;;;;;4808328;29;20591;-70
2022/12/02 13:55:38;;;;;;;12.65;8.43;;;;;;;;;;4809078;29;20046;-70
2022/12/02 13:58:04;;;;;;;14.32;9.57;;;;;;;;;;4808796;29;20479;-70
2022/12/02 14:00:30;;;;;;;15.55;9.13;;;;;;;;;;4808465;29;20058;-70
2022/12/02 14:02:57;;;;;;;17.40;8.63;;;;;;;;;;4808518;29;20057;-70
2022/12/02 14:05:23;;;;;;;15.55;9.20;;;;;;;;;;4808645;29;20053;-70
2022/12/02 14:07:49;;;;;;;13.27;8.88;;;;;;;;;;4808175;29;20570;-70
2022/12/02 14:10:15;;;;;;;11.95;7.82;;;;;;;;;;4808509;29;20042;-70
2022/12/02 14:12:41;;;;;;;12.90;8.82;;;;;;;;;;4808347;29;20692;-70
2022/12/02 14:15:07;;;;;;;11.75;8.23;;;;;;;;;;4808522;29;20491;-70
2022/12/02 14:17:33;;;;;;;12.63;8.30;;;;;;;;;;4808495;29;20077;-70
2022/12/02 14:20:00;;;;;;;11.15;8.07;;;;;;;;;;4808442;29;20101;-70
2022/12/02 14:22:26;;;;;;;12.60;8.48;;;;;;;;;;4808367;29;20061;-70
2022/12/02 14:24:52;;;;;;;11.40;8.15;;;;;;;;;;4808348;29;20518;-70
2022/12/02 14:27:18;;;;;;;12.38;9.07;;;;;;;;;;4808104;29;20066;-70
2022/12/02 14:29:44;;;;;;;11.55;8.70;;;;;;;;;;4808007;29;20050;-70
2022/12/02 14:32:10;;;;;;;13.38;8.38;;;;;;;;;;4807966;29;20082;-70
2022/12/02 14:34:36;;;;;;;15.18;8.98;;;;;;;;;;4808453;29;20100;-70
2022/12/02 14:37:02;;;;;;;15.27;9.23;;;;;;;;;;4807740;29;20095;-70
2022/12/02 14:39:28;;;;;;;14.40;9.23;;;;;;;;;;4808140;29;20479;-70
2022/12/02 14:41:55;;;;;;;16.05;9.15;;;;;;;;;;4808306;29;20047;-70
2022/12/02 14:44:21;;;;;;;16.92;10.48;;;;;;;;;;4808299;29;20475;-70
2022/12/02 14:46:47;;;;;;;17.05;10.20;;;;;;;;;;4807380;29;20058;-70
2022/12/02 14:49:13;;;;;;;14.00;9.77;;;;;;;;;;4807936;29;20130;-70
2022/12/02 14:51:39;;;;;;;14.35;9.45;;;;;;;;;;4807490;29;20141;-70
2022/12/02 14:54:06;;;;;;;16.30;11.07;;;;;;;;;;4807574;29;20050;-70
2022/12/02 14:56:32;;;;;;;16.27;10.82;;;;;;;;;;4807297;29;20046;-70
2022/12/02 14:58:58;;;;;;;16.55;11.43;;;;;;;;;;4807571;29;20050;-70
2022/12/02 15:01:25;;;;;;;18.73;10.95;;;;;;;;;;4807317;29;20101;-70
2022/12/02 15:03:51;;;;;;;17.92;10.95;;;;;;;;;;4807265;29;20074;-70
2022/12/02 15:06:17;;;;;;;16.52;10.93;;;;;;;;;;4807533;29;20134;-70
2022/12/02 15:08:43;;;;;;;20.13;11.68;;;;;;;;;;4807303;29;20042;-70
2022/12/02 15:11:09;;;;;;;20.73;11.95;;;;;;;;;;4807118;29;20055;-70
2022/12/02 15:13:35;;;;;;;19.20;11.95;;;;;;;;;;4807441;29;20051;-70
2022/12/02 15:16:01;;;;;;;17.52;11.05;;;;;;;;;;4807108;29;20050;-70
2022/12/02 15:18:27;;;;;;;17.30;10.88;;;;;;;;;;4807626;29;20038;-70
2022/12/02 15:20:53;;;;;;;19.05;11.30;;;;;;;;;;4807047;29;20058;-70
2022/12/02 15:23:20;;;;;;;19.05;12.10;;;;;;;;;;4807210;29;20081;-70
2022/12/02 15:25:46;;;;;;;18.15;11.60;;;;;;;;;;4807308;29;20041;-70
2022/12/02 15:28:12;;;;;;;18.27;11.82;;;;;;;;;;4807027;29;20055;-70
2022/12/02 15:30:38;;;;;;;20.33;12.05;;;;;;;;;;4807649;29;20062;-70
2022/12/02 15:33:04;;;;;;;32.33;16.13;;;;;;;;;;4807238;29;20046;-70
2022/12/02 15:35:30;;;;;;;24.75;14.00;;;;;;;;;;4807769;29;20075;-70
2022/12/02 15:37:56;;;;;;;51.53;22.40;;;;;;;;;;4807202;29;20050;-70
2022/12/02 15:40:22;;;;;;;36.03;18.27;;;;;;;;;;4807415;29;20043;-70
2022/12/02 15:42:49;;;;;;;46.53;22.23;;;;;;;;;;4807195;29;20043;-70
2022/12/02 15:45:15;;;;;;;27.73;14.98;;;;;;;;;;4808711;29;20107;-70
2022/12/02 15:47:49;;;;;;;23.00;13.68;;;;;;;;;;4809656;29;20074;-71
2022/12/02 15:50:15;;;;;;;27.48;15.85;;;;;;;;;;4792373;29;20412;-71
2022/12/02 15:52:44;;;;;;;24.70;16.30;;;;;;;;;;4779047;30;20051;-70
2022/12/02 15:55:10;;;;;;;26.65;16.02;;;;;;;;;;4776448;30;20075;-70
2022/12/02 15:57:36;;;;;;;31.27;17.90;;;;;;;;;;4794094;29;20054;-70
2022/12/02 16:00:04;;;;;;;41.75;23.20;;;;;;;;;;4802762;29;20575;-70
2022/12/02 16:02:30;;;;;;;34.83;18.83;;;;;;;;;;4807742;29;20511;-70
2022/12/02 16:05:32;;;;;;;27.30;14.80;;;;;;;;;;4808608;29;20510;-70
2022/12/02 16:08:02;;;;;;;31.55;18.05;;;;;;;;;;4808516;29;20137;-70
2022/12/02 16:10:30;;;;;;;24.40;14.60;;;;;;;;;;4793205;29;20107;-70
2022/12/02 16:12:56;;;;;;;27.60;16.08;;;;;;;;;;4808447;29;20395;-70
2022/12/02 16:15:23;;;;;;;22.88;14.65;;;;;;;;;;4809416;29;20046;-70
2022/12/02 16:17:49;;;;;;;21.85;12.95;;;;;;;;;;4808567;29;20523;-70
2022/12/02 16:20:15;;;;;;;21.65;12.48;;;;;;;;;;4809675;29;20043;-69
2022/12/02 16:22:41;;;;;;;21.05;12.88;;;;;;;;;;4792843;29;20451;-70
2022/12/02 16:25:07;;;;;;;20.42;12.07;;;;;;;;;;4778963;30;20047;-71
2022/12/02 16:27:33;;;;;;;23.65;13.27;;;;;;;;;;4792465;29;20511;-70
2022/12/02 16:30:00;;;;;;;40.10;20.15;;;;;;;;;;4791716;29;20051;-70
2022/12/02 16:32:26;;;;;;;39.15;21.35;;;;;;;;;;4805314;29;20138;-70
2022/12/02 16:34:52;;;;;;;38.03;20.17;;;;;;;;;;4827189;29;20050;-70
2022/12/02 16:37:20;;;;;;;30.20;16.23;;;;;;;;;;4826153;29;20043;-70
2022/12/02 16:39:47;;;;;;;78.07;35.47;;;;;;;;;;4827346;29;20049;-70